sensor_id;sensor_type;location;lat;lon;timestamp;P1;durP1;ratioP1;P2;durP2;ratioP2
82900;SDS011;72673;50.822;3.280;2024-02-14T00:00:47;5.30;;;3.53;;
82900;SDS011;72673;50.822;3.280;2024-02-14T00:03:12;5.00;;;3.40;;
82900;SDS011;72673;50.822;3.280;2024-02-14T00:05:38;4.65;;;3.30;;
82900;SDS011;72673;50.822;3.280;2024-02-14T00:08:06;5.28;;;3.78;;
82900;SDS011;72673;50.822;3.280;2024-02-14T00:10:32;8.07;;;3.45;;
82900;SDS011;72673;50.822;3.280;2024-02-14T00:12:58;5.65;;;3.70;;
82900;SDS011;72673;50.822;3.280;2024-02-14T00:15:23;5.95;;;3.80;;
82900;SDS011;72673;50.822;3.280;2024-02-14T00:17:50;7.88;;;3.85;;
82900;SDS011;72673;50.822;3.280;2024-02-14T00:20:15;6.80;;;3.72;;
82900;SDS011;72673;50.822;3.280;2024-02-14T00:22:41;4.53;;;3.63;;
82900;SDS011;72673;50.822;3.280;2024-02-14T00:25:07;5.00;;;3.33;;
82900;SDS011;72673;50.822;3.280;2024-02-14T00:27:33;8.20;;;4.05;;
82900;SDS011;72673;50.822;3.280;2024-02-14T00:29:58;5.38;;;3.88;;
82900;SDS011;72673;50.822;3.280;2024-02-14T00:32:24;6.72;;;4.00;;
82900;SDS011;72673;50.822;3.280;2024-02-14T00:34:49;5.03;;;3.42;;
82900;SDS011;72673;50.822;3.280;2024-02-14T00:37:15;5.72;;;3.38;;
82900;SDS011;72673;50.822;3.280;2024-02-14T00:39:41;5.20;;;2.90;;
82900;SDS011;72673;50.822;3.280;2024-02-14T00:42:06;6.57;;;4.03;;
82900;SDS011;72673;50.822;3.280;2024-02-14T00:44:32;6.95;;;3.90;;
82900;SDS011;72673;50.822;3.280;2024-02-14T00:46:58;7.40;;;4.32;;
82900;SDS011;72673;50.822;3.280;2024-02-14T00:49:27;5.88;;;3.97;;
82900;SDS011;72673;50.822;3.280;2024-02-14T00:51:53;8.10;;;4.38;;
82900;SDS011;72673;50.822;3.280;2024-02-14T00:54:19;6.50;;;3.70;;
82900;SDS011;72673;50.822;3.280;2024-02-14T00:56:45;7.57;;;4.30;;
82900;SDS011;72673;50.822;3.280;2024-02-14T00:59:10;5.60;;;3.80;;
82900;SDS011;72673;50.822;3.280;2024-02-14T01:01:36;7.45;;;4.32;;
82900;SDS011;72673;50.822;3.280;2024-02-14T01:04:02;9.90;;;4.95;;
82900;SDS011;72673;50.822;3.280;2024-02-14T01:06:29;10.30;;;4.07;;
82900;SDS011;72673;50.822;3.280;2024-02-14T01:08:55;7.50;;;3.67;;
82900;SDS011;72673;50.822;3.280;2024-02-14T01:11:21;9.32;;;4.43;;
82900;SDS011;72673;50.822;3.280;2024-02-14T01:13:47;7.78;;;3.50;;
82900;SDS011;72673;50.822;3.280;2024-02-14T01:16:12;10.07;;;3.90;;
82900;SDS011;72673;50.822;3.280;2024-02-14T01:18:38;9.43;;;4.05;;
82900;SDS011;72673;50.822;3.280;2024-02-14T01:21:04;7.03;;;4.00;;
82900;SDS011;72673;50.822;3.280;2024-02-14T01:23:30;10.93;;;4.68;;
82900;SDS011;72673;50.822;3.280;2024-02-14T01:25:56;7.78;;;4.32;;
82900;SDS011;72673;50.822;3.280;2024-02-14T01:28:22;8.18;;;4.50;;
82900;SDS011;72673;50.822;3.280;2024-02-14T01:30:47;6.05;;;4.35;;
82900;SDS011;72673;50.822;3.280;2024-02-14T01:33:13;7.95;;;4.25;;
82900;SDS011;72673;50.822;3.280;2024-02-14T01:35:39;10.90;;;3.85;;
82900;SDS011;72673;50.822;3.280;2024-02-14T01:38:05;9.70;;;4.28;;
82900;SDS011;72673;50.822;3.280;2024-02-14T01:40:31;5.68;;;4.13;;
82900;SDS011;72673;50.822;3.280;2024-02-14T01:42:56;6.80;;;4.38;;
82900;SDS011;72673;50.822;3.280;2024-02-14T01:45:22;5.88;;;4.50;;
82900;SDS011;72673;50.822;3.280;2024-02-14T01:47:48;8.20;;;4.45;;
82900;SDS011;72673;50.822;3.280;2024-02-14T01:50:15;6.93;;;4.43;;
82900;SDS011;72673;50.822;3.280;2024-02-14T01:52:41;6.82;;;4.00;;
82900;SDS011;72673;50.822;3.280;2024-02-14T01:55:09;9.10;;;3.60;;
82900;SDS011;72673;50.822;3.280;2024-02-14T01:57:37;8.43;;;4.28;;
82900;SDS011;72673;50.822;3.280;2024-02-14T02:00:04;9.88;;;4.45;;
82900;SDS011;72673;50.822;3.280;2024-02-14T02:05:05;9.07;;;3.80;;
82900;SDS011;72673;50.822;3.280;2024-02-14T02:07:32;7.75;;;3.83;;
82900;SDS011;72673;50.822;3.280;2024-02-14T02:09:58;6.35;;;3.95;;
82900;SDS011;72673;50.822;3.280;2024-02-14T02:12:24;8.55;;;3.95;;
82900;SDS011;72673;50.822;3.280;2024-02-14T02:14:52;7.00;;;3.83;;
82900;SDS011;72673;50.822;3.280;2024-02-14T02:17:18;5.28;;;3.67;;
82900;SDS011;72673;50.822;3.280;2024-02-14T02:19:44;6.68;;;3.50;;
82900;SDS011;72673;50.822;3.280;2024-02-14T02:22:09;7.50;;;3.67;;
82900;SDS011;72673;50.822;3.280;2024-02-14T02:24:35;7.93;;;4.00;;
82900;SDS011;72673;50.822;3.280;2024-02-14T02:27:01;7.28;;;3.97;;
82900;SDS011;72673;50.822;3.280;2024-02-14T02:29:27;7.32;;;3.67;;
82900;SDS011;72673;50.822;3.280;2024-02-14T02:31:53;8.43;;;4.22;;
82900;SDS011;72673;50.822;3.280;2024-02-14T02:34:18;10.48;;;4.20;;
82900;SDS011;72673;50.822;3.280;2024-02-14T02:36:44;4.55;;;3.67;;
82900;SDS011;72673;50.822;3.280;2024-02-14T02:39:11;4.47;;;3.75;;
82900;SDS011;72673;50.822;3.280;2024-02-14T02:41:39;8.82;;;4.15;;
82900;SDS011;72673;50.822;3.280;2024-02-14T02:44:04;11.43;;;3.97;;
82900;SDS011;72673;50.822;3.280;2024-02-14T02:46:31;10.20;;;4.10;;
82900;SDS011;72673;50.822;3.280;2024-02-14T02:48:57;8.25;;;4.05;;
82900;SDS011;72673;50.822;3.280;2024-02-14T02:51:23;6.80;;;3.40;;
82900;SDS011;72673;50.822;3.280;2024-02-14T02:53:49;11.52;;;4.32;;
82900;SDS011;72673;50.822;3.280;2024-02-14T02:56:17;8.30;;;4.10;;
82900;SDS011;72673;50.822;3.280;2024-02-14T02:58:43;6.40;;;4.38;;
82900;SDS011;72673;50.822;3.280;2024-02-14T03:01:09;8.65;;;3.97;;
82900;SDS011;72673;50.822;3.280;2024-02-14T03:03:37;7.78;;;4.20;;
82900;SDS011;72673;50.822;3.280;2024-02-14T03:06:03;8.00;;;4.63;;
82900;SDS011;72673;50.822;3.280;2024-02-14T03:08:30;9.93;;;4.45;;
82900;SDS011;72673;50.822;3.280;2024-02-14T03:10:56;9.68;;;4.57;;
82900;SDS011;72673;50.822;3.280;2024-02-14T03:13:25;11.68;;;4.70;;
82900;SDS011;72673;50.822;3.280;2024-02-14T03:15:51;12.90;;;4.72;;
82900;SDS011;72673;50.822;3.280;2024-02-14T03:18:17;8.05;;;3.80;;
82900;SDS011;72673;50.822;3.280;2024-02-14T03:20:43;7.80;;;4.47;;
82900;SDS011;72673;50.822;3.280;2024-02-14T03:23:09;10.32;;;4.68;;
82900;SDS011;72673;50.822;3.280;2024-02-14T03:25:35;8.45;;;4.40;;
82900;SDS011;72673;50.822;3.280;2024-02-14T03:28:02;14.05;;;4.82;;
82900;SDS011;72673;50.822;3.280;2024-02-14T03:30:32;9.50;;;5.32;;
82900;SDS011;72673;50.822;3.280;2024-02-14T03:32:59;8.40;;;4.68;;
82900;SDS011;72673;50.822;3.280;2024-02-14T03:35:24;10.48;;;4.80;;
82900;SDS011;72673;50.822;3.280;2024-02-14T03:37:52;8.27;;;4.30;;
82900;SDS011;72673;50.822;3.280;2024-02-14T03:40:18;6.28;;;4.32;;
82900;SDS011;72673;50.822;3.280;2024-02-14T03:42:47;8.00;;;4.27;;
82900;SDS011;72673;50.822;3.280;2024-02-14T03:45:13;7.25;;;4.18;;
82900;SDS011;72673;50.822;3.280;2024-02-14T03:47:39;8.52;;;4.30;;
82900;SDS011;72673;50.822;3.280;2024-02-14T03:50:05;9.20;;;4.22;;
82900;SDS011;72673;50.822;3.280;2024-02-14T03:52:32;6.57;;;4.75;;
82900;SDS011;72673;50.822;3.280;2024-02-14T03:54:58;10.52;;;4.38;;
82900;SDS011;72673;50.822;3.280;2024-02-14T03:57:25;12.77;;;5.38;;
82900;SDS011;72673;50.822;3.280;2024-02-14T03:59:53;8.52;;;5.10;;
82900;SDS011;72673;50.822;3.280;2024-02-14T04:02:19;11.85;;;4.95;;
82900;SDS011;72673;50.822;3.280;2024-02-14T04:04:45;8.32;;;5.03;;
82900;SDS011;72673;50.822;3.280;2024-02-14T04:07:11;8.27;;;4.38;;
82900;SDS011;72673;50.822;3.280;2024-02-14T04:09:37;9.23;;;4.60;;
82900;SDS011;72673;50.822;3.280;2024-02-14T04:12:03;10.82;;;4.80;;
82900;SDS011;72673;50.822;3.280;2024-02-14T04:14:29;5.68;;;4.57;;
82900;SDS011;72673;50.822;3.280;2024-02-14T04:16:55;6.72;;;4.57;;
82900;SDS011;72673;50.822;3.280;2024-02-14T04:19:21;9.43;;;5.38;;
82900;SDS011;72673;50.822;3.280;2024-02-14T04:21:46;8.45;;;4.75;;
82900;SDS011;72673;50.822;3.280;2024-02-14T04:24:12;11.52;;;4.75;;
82900;SDS011;72673;50.822;3.280;2024-02-14T04:26:38;12.70;;;4.93;;
82900;SDS011;72673;50.822;3.280;2024-02-14T04:29:04;9.77;;;4.95;;
82900;SDS011;72673;50.822;3.280;2024-02-14T04:31:29;10.55;;;4.80;;
82900;SDS011;72673;50.822;3.280;2024-02-14T04:33:56;10.38;;;4.57;;
82900;SDS011;72673;50.822;3.280;2024-02-14T04:36:22;11.57;;;4.75;;
82900;SDS011;72673;50.822;3.280;2024-02-14T04:38:48;7.88;;;4.40;;
82900;SDS011;72673;50.822;3.280;2024-02-14T04:41:14;8.48;;;4.45;;
82900;SDS011;72673;50.822;3.280;2024-02-14T04:43:40;10.02;;;4.22;;
82900;SDS011;72673;50.822;3.280;2024-02-14T04:46:06;9.52;;;4.55;;
82900;SDS011;72673;50.822;3.280;2024-02-14T04:48:33;7.65;;;4.43;;
82900;SDS011;72673;50.822;3.280;2024-02-14T04:51:00;9.95;;;4.38;;
82900;SDS011;72673;50.822;3.280;2024-02-14T04:53:26;8.30;;;3.95;;
82900;SDS011;72673;50.822;3.280;2024-02-14T04:55:52;10.15;;;4.40;;
82900;SDS011;72673;50.822;3.280;2024-02-14T04:58:18;9.85;;;3.83;;
82900;SDS011;72673;50.822;3.280;2024-02-14T05:00:45;7.97;;;4.05;;
82900;SDS011;72673;50.822;3.280;2024-02-14T05:03:10;9.18;;;4.35;;
82900;SDS011;72673;50.822;3.280;2024-02-14T05:05:36;11.07;;;4.60;;
82900;SDS011;72673;50.822;3.280;2024-02-14T05:08:02;7.43;;;3.92;;
82900;SDS011;72673;50.822;3.280;2024-02-14T05:10:28;8.85;;;4.32;;
82900;SDS011;72673;50.822;3.280;2024-02-14T05:12:54;8.95;;;3.80;;
82900;SDS011;72673;50.822;3.280;2024-02-14T05:15:20;7.85;;;4.00;;
82900;SDS011;72673;50.822;3.280;2024-02-14T05:17:46;9.93;;;3.97;;
82900;SDS011;72673;50.822;3.280;2024-02-14T05:20:11;9.18;;;4.03;;
82900;SDS011;72673;50.822;3.280;2024-02-14T05:22:37;11.25;;;4.03;;
82900;SDS011;72673;50.822;3.280;2024-02-14T05:25:04;8.15;;;4.15;;
82900;SDS011;72673;50.822;3.280;2024-02-14T05:27:32;13.03;;;4.27;;
82900;SDS011;72673;50.822;3.280;2024-02-14T05:29:58;12.68;;;4.82;;
82900;SDS011;72673;50.822;3.280;2024-02-14T05:32:24;11.90;;;4.72;;
82900;SDS011;72673;50.822;3.280;2024-02-14T05:34:50;10.15;;;4.72;;
82900;SDS011;72673;50.822;3.280;2024-02-14T05:37:16;10.20;;;4.90;;
82900;SDS011;72673;50.822;3.280;2024-02-14T05:39:42;11.07;;;5.13;;
82900;SDS011;72673;50.822;3.280;2024-02-14T05:42:07;17.13;;;5.10;;
82900;SDS011;72673;50.822;3.280;2024-02-14T05:44:33;7.13;;;4.13;;
82900;SDS011;72673;50.822;3.280;2024-02-14T05:46:59;10.55;;;5.35;;
82900;SDS011;72673;50.822;3.280;2024-02-14T05:49:25;8.98;;;3.67;;
82900;SDS011;72673;50.822;3.280;2024-02-14T05:51:51;11.88;;;4.32;;
82900;SDS011;72673;50.822;3.280;2024-02-14T05:54:18;7.10;;;3.67;;
82900;SDS011;72673;50.822;3.280;2024-02-14T05:56:45;7.97;;;4.10;;
82900;SDS011;72673;50.822;3.280;2024-02-14T05:59:11;12.82;;;4.60;;
82900;SDS011;72673;50.822;3.280;2024-02-14T06:01:37;7.93;;;4.15;;
82900;SDS011;72673;50.822;3.280;2024-02-14T06:04:02;10.68;;;4.15;;
82900;SDS011;72673;50.822;3.280;2024-02-14T06:06:28;7.65;;;4.13;;
82900;SDS011;72673;50.822;3.280;2024-02-14T06:08:54;12.68;;;4.32;;
82900;SDS011;72673;50.822;3.280;2024-02-14T06:11:22;7.95;;;4.80;;
82900;SDS011;72673;50.822;3.280;2024-02-14T06:13:48;8.65;;;4.53;;
82900;SDS011;72673;50.822;3.280;2024-02-14T06:16:13;12.68;;;4.20;;
82900;SDS011;72673;50.822;3.280;2024-02-14T06:18:39;13.35;;;4.28;;
82900;SDS011;72673;50.822;3.280;2024-02-14T06:21:05;11.20;;;4.00;;
82900;SDS011;72673;50.822;3.280;2024-02-14T06:23:31;15.45;;;5.55;;
82900;SDS011;72673;50.822;3.280;2024-02-14T06:25:57;8.85;;;4.57;;
82900;SDS011;72673;50.822;3.280;2024-02-14T06:28:24;10.25;;;4.75;;
82900;SDS011;72673;50.822;3.280;2024-02-14T06:30:49;20.95;;;5.38;;
82900;SDS011;72673;50.822;3.280;2024-02-14T06:33:15;10.60;;;4.60;;
82900;SDS011;72673;50.822;3.280;2024-02-14T06:35:41;8.45;;;4.07;;
82900;SDS011;72673;50.822;3.280;2024-02-14T06:38:06;15.60;;;4.43;;
82900;SDS011;72673;50.822;3.280;2024-02-14T06:40:32;10.23;;;4.82;;
82900;SDS011;72673;50.822;3.280;2024-02-14T06:42:58;18.23;;;4.72;;
82900;SDS011;72673;50.822;3.280;2024-02-14T06:45:25;15.88;;;4.78;;
82900;SDS011;72673;50.822;3.280;2024-02-14T06:47:52;13.43;;;4.63;;
82900;SDS011;72673;50.822;3.280;2024-02-14T06:50:19;13.13;;;4.63;;
82900;SDS011;72673;50.822;3.280;2024-02-14T06:52:44;10.25;;;4.28;;
82900;SDS011;72673;50.822;3.280;2024-02-14T06:55:10;12.98;;;4.68;;
82900;SDS011;72673;50.822;3.280;2024-02-14T06:57:36;12.40;;;4.78;;
82900;SDS011;72673;50.822;3.280;2024-02-14T07:00:02;11.18;;;4.13;;
82900;SDS011;72673;50.822;3.280;2024-02-14T07:02:31;9.47;;;4.77;;
82900;SDS011;72673;50.822;3.280;2024-02-14T07:04:56;6.65;;;3.90;;
82900;SDS011;72673;50.822;3.280;2024-02-14T07:07:22;12.77;;;4.38;;
82900;SDS011;72673;50.822;3.280;2024-02-14T07:09:48;12.10;;;4.78;;
82900;SDS011;72673;50.822;3.280;2024-02-14T07:12:13;9.48;;;4.28;;
82900;SDS011;72673;50.822;3.280;2024-02-14T07:14:39;8.63;;;4.13;;
82900;SDS011;72673;50.822;3.280;2024-02-14T07:17:05;17.60;;;5.00;;
82900;SDS011;72673;50.822;3.280;2024-02-14T07:19:30;12.68;;;4.50;;
82900;SDS011;72673;50.822;3.280;2024-02-14T07:21:56;12.43;;;5.20;;
82900;SDS011;72673;50.822;3.280;2024-02-14T07:24:22;12.70;;;4.72;;
82900;SDS011;72673;50.822;3.280;2024-02-14T07:26:47;10.77;;;4.75;;
82900;SDS011;72673;50.822;3.280;2024-02-14T07:29:13;12.80;;;4.82;;
82900;SDS011;72673;50.822;3.280;2024-02-14T07:31:39;9.35;;;4.20;;
82900;SDS011;72673;50.822;3.280;2024-02-14T07:34:04;7.38;;;4.10;;
82900;SDS011;72673;50.822;3.280;2024-02-14T07:36:31;10.60;;;4.75;;
82900;SDS011;72673;50.822;3.280;2024-02-14T07:38:57;12.98;;;4.55;;
82900;SDS011;72673;50.822;3.280;2024-02-14T07:41:23;14.43;;;4.35;;
82900;SDS011;72673;50.822;3.280;2024-02-14T07:43:48;7.80;;;4.20;;
82900;SDS011;72673;50.822;3.280;2024-02-14T07:46:18;13.38;;;4.30;;
82900;SDS011;72673;50.822;3.280;2024-02-14T07:48:44;8.60;;;4.40;;
82900;SDS011;72673;50.822;3.280;2024-02-14T07:51:10;13.85;;;4.65;;
82900;SDS011;72673;50.822;3.280;2024-02-14T07:53:36;10.82;;;4.43;;
82900;SDS011;72673;50.822;3.280;2024-02-14T07:56:02;13.13;;;5.28;;
82900;SDS011;72673;50.822;3.280;2024-02-14T07:58:27;10.27;;;4.13;;
82900;SDS011;72673;50.822;3.280;2024-02-14T08:00:53;10.50;;;4.20;;
82900;SDS011;72673;50.822;3.280;2024-02-14T08:03:19;12.13;;;4.40;;
82900;SDS011;72673;50.822;3.280;2024-02-14T08:05:44;8.48;;;4.25;;
82900;SDS011;72673;50.822;3.280;2024-02-14T08:08:10;12.43;;;4.60;;
82900;SDS011;72673;50.822;3.280;2024-02-14T08:10:36;11.77;;;4.50;;
82900;SDS011;72673;50.822;3.280;2024-02-14T08:13:01;10.43;;;4.28;;
82900;SDS011;72673;50.822;3.280;2024-02-14T08:15:29;13.60;;;4.40;;
82900;SDS011;72673;50.822;3.280;2024-02-14T08:17:55;13.93;;;4.20;;
82900;SDS011;72673;50.822;3.280;2024-02-14T08:20:21;13.85;;;5.43;;
82900;SDS011;72673;50.822;3.280;2024-02-14T08:22:48;16.02;;;6.15;;
82900;SDS011;72673;50.822;3.280;2024-02-14T08:25:14;11.40;;;4.97;;
82900;SDS011;72673;50.822;3.280;2024-02-14T08:27:40;10.77;;;5.32;;
82900;SDS011;72673;50.822;3.280;2024-02-14T08:30:05;11.20;;;5.55;;
82900;SDS011;72673;50.822;3.280;2024-02-14T08:32:33;14.38;;;5.97;;
82900;SDS011;72673;50.822;3.280;2024-02-14T08:34:59;11.40;;;5.53;;
82900;SDS011;72673;50.822;3.280;2024-02-14T08:37:26;12.85;;;5.32;;
82900;SDS011;72673;50.822;3.280;2024-02-14T08:39:52;11.95;;;5.45;;
82900;SDS011;72673;50.822;3.280;2024-02-14T08:42:18;7.95;;;4.97;;
82900;SDS011;72673;50.822;3.280;2024-02-14T08:44:43;10.18;;;5.40;;
82900;SDS011;72673;50.822;3.280;2024-02-14T08:47:09;14.73;;;6.38;;
82900;SDS011;72673;50.822;3.280;2024-02-14T08:49:35;11.48;;;4.93;;
82900;SDS011;72673;50.822;3.280;2024-02-14T08:52:01;8.70;;;5.10;;
82900;SDS011;72673;50.822;3.280;2024-02-14T08:54:27;12.07;;;5.22;;
82900;SDS011;72673;50.822;3.280;2024-02-14T08:56:53;8.07;;;5.38;;
82900;SDS011;72673;50.822;3.280;2024-02-14T08:59:21;10.48;;;5.88;;
82900;SDS011;72673;50.822;3.280;2024-02-14T09:01:47;12.75;;;5.93;;
82900;SDS011;72673;50.822;3.280;2024-02-14T09:04:13;13.43;;;6.38;;
82900;SDS011;72673;50.822;3.280;2024-02-14T09:06:39;11.48;;;6.07;;
82900;SDS011;72673;50.822;3.280;2024-02-14T09:09:06;9.02;;;5.93;;
82900;SDS011;72673;50.822;3.280;2024-02-14T09:11:35;10.15;;;5.72;;
82900;SDS011;72673;50.822;3.280;2024-02-14T09:14:01;7.95;;;5.20;;
82900;SDS011;72673;50.822;3.280;2024-02-14T09:16:31;8.15;;;4.93;;
82900;SDS011;72673;50.822;3.280;2024-02-14T09:19:00;10.90;;;5.88;;
82900;SDS011;72673;50.822;3.280;2024-02-14T09:21:30;8.35;;;5.85;;
82900;SDS011;72673;50.822;3.280;2024-02-14T09:23:56;9.75;;;6.00;;
82900;SDS011;72673;50.822;3.280;2024-02-14T09:26:22;9.75;;;5.60;;
82900;SDS011;72673;50.822;3.280;2024-02-14T09:28:48;8.45;;;5.32;;
82900;SDS011;72673;50.822;3.280;2024-02-14T09:31:20;12.18;;;5.22;;
82900;SDS011;72673;50.822;3.280;2024-02-14T09:33:46;10.93;;;5.55;;
82900;SDS011;72673;50.822;3.280;2024-02-14T09:36:13;8.23;;;5.40;;
82900;SDS011;72673;50.822;3.280;2024-02-14T09:38:40;7.35;;;5.00;;
82900;SDS011;72673;50.822;3.280;2024-02-14T09:41:10;9.90;;;5.53;;
82900;SDS011;72673;50.822;3.280;2024-02-14T09:43:43;8.23;;;4.88;;
82900;SDS011;72673;50.822;3.280;2024-02-14T09:46:11;10.02;;;4.70;;
82900;SDS011;72673;50.822;3.280;2024-02-14T09:48:38;8.25;;;5.03;;
82900;SDS011;72673;50.822;3.280;2024-02-14T09:51:05;8.15;;;5.22;;
82900;SDS011;72673;50.822;3.280;2024-02-14T09:53:32;7.10;;;5.15;;
82900;SDS011;72673;50.822;3.280;2024-02-14T09:55:58;7.97;;;4.43;;
82900;SDS011;72673;50.822;3.280;2024-02-14T09:58:26;9.60;;;4.63;;
82900;SDS011;72673;50.822;3.280;2024-02-14T10:00:53;8.05;;;4.28;;
82900;SDS011;72673;50.822;3.280;2024-02-14T10:03:19;7.80;;;4.90;;
82900;SDS011;72673;50.822;3.280;2024-02-14T10:05:44;6.15;;;4.40;;
82900;SDS011;72673;50.822;3.280;2024-02-14T10:08:10;5.15;;;4.10;;
82900;SDS011;72673;50.822;3.280;2024-02-14T10:10:37;6.80;;;4.47;;
82900;SDS011;72673;50.822;3.280;2024-02-14T10:13:03;6.20;;;4.32;;
82900;SDS011;72673;50.822;3.280;2024-02-14T10:15:30;9.43;;;4.63;;
82900;SDS011;72673;50.822;3.280;2024-02-14T10:17:57;7.97;;;4.53;;
82900;SDS011;72673;50.822;3.280;2024-02-14T10:20:24;6.88;;;5.00;;
82900;SDS011;72673;50.822;3.280;2024-02-14T10:22:51;6.82;;;4.50;;
82900;SDS011;72673;50.822;3.280;2024-02-14T10:25:17;6.30;;;4.80;;
82900;SDS011;72673;50.822;3.280;2024-02-14T10:27:44;7.95;;;4.05;;
82900;SDS011;72673;50.822;3.280;2024-02-14T10:30:12;7.90;;;4.50;;
82900;SDS011;72673;50.822;3.280;2024-02-14T10:32:39;8.13;;;4.47;;
82900;SDS011;72673;50.822;3.280;2024-02-14T10:35:05;5.32;;;4.07;;
82900;SDS011;72673;50.822;3.280;2024-02-14T10:37:36;8.82;;;4.28;;
82900;SDS011;72673;50.822;3.280;2024-02-14T10:40:02;9.02;;;4.03;;
82900;SDS011;72673;50.822;3.280;2024-02-14T10:42:29;7.78;;;4.05;;
82900;SDS011;72673;50.822;3.280;2024-02-14T10:44:59;6.57;;;4.45;;
82900;SDS011;72673;50.822;3.280;2024-02-14T10:47:29;8.57;;;4.32;;
82900;SDS011;72673;50.822;3.280;2024-02-14T10:49:57;8.25;;;3.22;;
82900;SDS011;72673;50.822;3.280;2024-02-14T10:52:29;7.82;;;3.53;;
82900;SDS011;72673;50.822;3.280;2024-02-14T10:54:58;10.70;;;4.75;;
82900;SDS011;72673;50.822;3.280;2024-02-14T10:57:26;9.57;;;4.40;;
82900;SDS011;72673;50.822;3.280;2024-02-14T10:59:54;8.15;;;4.13;;
82900;SDS011;72673;50.822;3.280;2024-02-14T11:02:20;8.88;;;3.80;;
82900;SDS011;72673;50.822;3.280;2024-02-14T11:04:48;8.52;;;4.13;;
82900;SDS011;72673;50.822;3.280;2024-02-14T11:07:18;10.30;;;4.13;;
82900;SDS011;72673;50.822;3.280;2024-02-14T11:09:47;11.77;;;4.13;;
82900;SDS011;72673;50.822;3.280;2024-02-14T11:12:13;10.07;;;3.90;;
82900;SDS011;72673;50.822;3.280;2024-02-14T11:14:41;8.77;;;3.33;;
82900;SDS011;72673;50.822;3.280;2024-02-14T11:17:09;5.65;;;3.63;;
82900;SDS011;72673;50.822;3.280;2024-02-14T11:19:35;7.40;;;3.50;;
82900;SDS011;72673;50.822;3.280;2024-02-14T11:22:17;5.70;;;3.92;;
82900;SDS011;72673;50.822;3.280;2024-02-14T11:24:47;6.10;;;3.38;;
82900;SDS011;72673;50.822;3.280;2024-02-14T11:29:39;11.65;;;3.60;;
82900;SDS011;72673;50.822;3.280;2024-02-14T11:32:06;6.78;;;3.95;;
82900;SDS011;72673;50.822;3.280;2024-02-14T11:34:35;6.95;;;3.35;;
82900;SDS011;72673;50.822;3.280;2024-02-14T11:37:01;6.85;;;3.00;;
82900;SDS011;72673;50.822;3.280;2024-02-14T11:39:26;7.93;;;3.00;;
82900;SDS011;72673;50.822;3.280;2024-02-14T11:41:52;7.15;;;3.42;;
82900;SDS011;72673;50.822;3.280;2024-02-14T11:44:21;10.23;;;3.13;;
82900;SDS011;72673;50.822;3.280;2024-02-14T11:46:50;8.68;;;2.83;;
82900;SDS011;72673;50.822;3.280;2024-02-14T11:49:16;11.45;;;3.55;;
82900;SDS011;72673;50.822;3.280;2024-02-14T11:51:42;10.35;;;3.45;;
82900;SDS011;72673;50.822;3.280;2024-02-14T11:54:08;7.90;;;3.40;;
82900;SDS011;72673;50.822;3.280;2024-02-14T11:56:37;8.07;;;4.00;;
82900;SDS011;72673;50.822;3.280;2024-02-14T11:59:04;9.40;;;3.70;;
82900;SDS011;72673;50.822;3.280;2024-02-14T12:01:36;7.20;;;3.70;;
82900;SDS011;72673;50.822;3.280;2024-02-14T12:04:07;12.38;;;3.60;;
82900;SDS011;72673;50.822;3.280;2024-02-14T12:06:33;11.45;;;4.25;;
82900;SDS011;72673;50.822;3.280;2024-02-14T12:09:01;7.05;;;3.60;;
82900;SDS011;72673;50.822;3.280;2024-02-14T12:11:30;11.23;;;4.20;;
82900;SDS011;72673;50.822;3.280;2024-02-14T12:14:07;11.48;;;3.70;;
82900;SDS011;72673;50.822;3.280;2024-02-14T12:16:34;11.35;;;3.80;;
82900;SDS011;72673;50.822;3.280;2024-02-14T12:21:36;6.70;;;3.40;;
82900;SDS011;72673;50.822;3.280;2024-02-14T12:24:12;7.47;;;3.20;;
82900;SDS011;72673;50.822;3.280;2024-02-14T12:26:39;13.07;;;4.45;;
82900;SDS011;72673;50.822;3.280;2024-02-14T12:29:06;16.00;;;4.07;;
82900;SDS011;72673;50.822;3.280;2024-02-14T12:31:33;9.27;;;3.58;;
82900;SDS011;72673;50.822;3.280;2024-02-14T12:33:59;8.73;;;3.92;;
82900;SDS011;72673;50.822;3.280;2024-02-14T12:36:30;8.40;;;3.08;;
82900;SDS011;72673;50.822;3.280;2024-02-14T12:39:00;10.95;;;3.40;;
82900;SDS011;72673;50.822;3.280;2024-02-14T12:41:30;9.27;;;3.55;;
82900;SDS011;72673;50.822;3.280;2024-02-14T12:43:56;6.60;;;3.28;;
82900;SDS011;72673;50.822;3.280;2024-02-14T12:46:23;9.98;;;3.40;;
82900;SDS011;72673;50.822;3.280;2024-02-14T12:48:49;13.30;;;3.17;;
82900;SDS011;72673;50.822;3.280;2024-02-14T12:51:14;12.90;;;3.70;;
82900;SDS011;72673;50.822;3.280;2024-02-14T12:53:40;12.20;;;3.53;;
82900;SDS011;72673;50.822;3.280;2024-02-14T12:56:06;8.20;;;3.13;;
82900;SDS011;72673;50.822;3.280;2024-02-14T12:58:32;9.55;;;3.20;;
82900;SDS011;72673;50.822;3.280;2024-02-14T13:00:58;6.80;;;2.78;;
82900;SDS011;72673;50.822;3.280;2024-02-14T13:03:25;7.85;;;3.20;;
82900;SDS011;72673;50.822;3.280;2024-02-14T13:05:50;5.68;;;2.78;;
82900;SDS011;72673;50.822;3.280;2024-02-14T13:08:19;9.18;;;3.13;;
82900;SDS011;72673;50.822;3.280;2024-02-14T13:10:45;8.10;;;3.10;;
82900;SDS011;72673;50.822;3.280;2024-02-14T13:13:10;11.45;;;3.00;;
82900;SDS011;72673;50.822;3.280;2024-02-14T13:15:39;6.53;;;2.92;;
82900;SDS011;72673;50.822;3.280;2024-02-14T13:18:05;8.55;;;2.65;;
82900;SDS011;72673;50.822;3.280;2024-02-14T13:20:31;7.88;;;3.00;;
82900;SDS011;72673;50.822;3.280;2024-02-14T13:22:57;6.20;;;2.65;;
82900;SDS011;72673;50.822;3.280;2024-02-14T13:25:23;7.70;;;2.80;;
82900;SDS011;72673;50.822;3.280;2024-02-14T13:27:48;8.98;;;2.92;;
82900;SDS011;72673;50.822;3.280;2024-02-14T13:30:14;7.88;;;2.90;;
82900;SDS011;72673;50.822;3.280;2024-02-14T13:32:40;7.72;;;3.17;;
82900;SDS011;72673;50.822;3.280;2024-02-14T13:35:05;9.00;;;2.92;;
82900;SDS011;72673;50.822;3.280;2024-02-14T13:37:33;6.90;;;2.83;;
82900;SDS011;72673;50.822;3.280;2024-02-14T13:39:58;7.43;;;2.50;;
82900;SDS011;72673;50.822;3.280;2024-02-14T13:42:24;6.15;;;2.97;;
82900;SDS011;72673;50.822;3.280;2024-02-14T13:44:50;7.95;;;3.30;;
82900;SDS011;72673;50.822;3.280;2024-02-14T13:47:18;7.10;;;2.85;;
82900;SDS011;72673;50.822;3.280;2024-02-14T13:49:44;8.25;;;3.13;;
82900;SDS011;72673;50.822;3.280;2024-02-14T13:52:10;9.95;;;3.00;;
82900;SDS011;72673;50.822;3.280;2024-02-14T13:54:35;10.07;;;3.03;;
82900;SDS011;72673;50.822;3.280;2024-02-14T13:57:01;7.68;;;2.90;;
82900;SDS011;72673;50.822;3.280;2024-02-14T13:59:27;9.00;;;2.92;;
82900;SDS011;72673;50.822;3.280;2024-02-14T14:01:53;7.47;;;2.85;;
82900;SDS011;72673;50.822;3.280;2024-02-14T14:04:19;8.18;;;2.83;;
82900;SDS011;72673;50.822;3.280;2024-02-14T14:06:48;8.80;;;2.97;;
82900;SDS011;72673;50.822;3.280;2024-02-14T14:09:14;15.65;;;3.22;;
82900;SDS011;72673;50.822;3.280;2024-02-14T14:11:40;13.25;;;3.03;;
82900;SDS011;72673;50.822;3.280;2024-02-14T14:14:06;12.07;;;3.60;;
82900;SDS011;72673;50.822;3.280;2024-02-14T14:16:33;7.45;;;3.40;;
82900;SDS011;72673;50.822;3.280;2024-02-14T14:18:58;8.73;;;3.10;;
82900;SDS011;72673;50.822;3.280;2024-02-14T14:21:25;10.88;;;3.17;;
82900;SDS011;72673;50.822;3.280;2024-02-14T14:23:51;11.98;;;3.33;;
82900;SDS011;72673;50.822;3.280;2024-02-14T14:26:16;8.20;;;2.70;;
82900;SDS011;72673;50.822;3.280;2024-02-14T14:28:42;10.52;;;3.20;;
82900;SDS011;72673;50.822;3.280;2024-02-14T14:31:08;7.25;;;3.20;;
82900;SDS011;72673;50.822;3.280;2024-02-14T14:33:36;8.82;;;2.88;;
82900;SDS011;72673;50.822;3.280;2024-02-14T14:36:03;6.93;;;3.03;;
82900;SDS011;72673;50.822;3.280;2024-02-14T14:38:30;8.75;;;2.72;;
82900;SDS011;72673;50.822;3.280;2024-02-14T14:40:56;10.23;;;3.17;;
82900;SDS011;72673;50.822;3.280;2024-02-14T14:43:22;7.03;;;3.00;;
82900;SDS011;72673;50.822;3.280;2024-02-14T14:45:47;11.80;;;2.92;;